Time;durP1;ratioP1;P1;durP2;ratioP2;P2;SDS_P1;SDS_P2;PMS_P1;PMS_P2;Temp;Humidity;BMP_temperature;BMP_pressure;BME280_temperature;BME280_humidity;BME280_pressure;Samples;Min_cycle;Max_cycle;Signal;HPM_P1;HPM_P2
2023/03/20 00:02:06;;;;;;;;;;;11.10;99.90;;;;;;5054284;28;19994;-70
2023/03/20 00:04:31;;;;;;;;;;;11.10;99.90;;;;;;5054376;28;19967;-70
2023/03/20 00:06:57;;;;;;;;;;;11.10;99.90;;;;;;5055132;28;20160;-70
2023/03/20 00:09:25;;;;;;;;;;;11.10;99.90;;;;;;5055081;28;19960;-70
2023/03/20 00:11:52;;;;;;;;;;;11.10;99.90;;;;;;5054986;28;20332;-70
2023/03/20 00:14:23;;;;;;;;;;;11.10;99.90;;;;;;5055192;28;19913;-70
2023/03/20 00:16:49;;;;;;;;;;;11.20;99.90;;;;;;5054906;28;20371;-69
2023/03/20 00:19:17;;;;;;;;;;;11.30;99.90;;;;;;5054053;28;19913;-70
2023/03/20 00:21:44;;;;;;;;;;;11.30;99.90;;;;;;5054027;28;19909;-70
2023/03/20 00:24:10;;;;;;;;;;;11.40;99.90;;;;;;5053896;28;20366;-70
2023/03/20 00:26:37;;;;;;;;;;;11.40;99.90;;;;;;5054212;28;19935;-70
2023/03/20 00:29:03;;;;;;;;;;;11.40;99.90;;;;;;5053814;28;19984;-75
2023/03/20 00:31:30;;;;;;;;;;;11.40;99.90;;;;;;5053516;28;19947;-70
2023/03/20 00:33:57;;;;;;;;;;;11.40;99.90;;;;;;5053682;28;19913;-71
2023/03/20 00:36:23;;;;;;;;;;;11.50;99.90;;;;;;5053800;28;19916;-70
2023/03/20 00:38:49;;;;;;;;;;;11.40;99.90;;;;;;5053465;28;19912;-71
2023/03/20 00:41:20;;;;;;;;;;;11.40;99.90;;;;;;5052153;28;20038;-71
2023/03/20 00:43:51;;;;;;;;;;;11.40;99.90;;;;;;5052201;28;19916;-70
2023/03/20 00:46:17;;;;;;;;;;;11.50;99.90;;;;;;5053415;28;19916;-70
2023/03/20 00:48:43;;;;;;;;;;;11.50;99.90;;;;;;5054452;28;19909;-70
2023/03/20 00:51:09;;;;;;;;;;;11.60;99.90;;;;;;5053858;28;19913;-71
2023/03/20 00:53:36;;;;;;;;;;;11.70;99.90;;;;;;5054338;28;19920;-70
2023/03/20 00:56:02;;;;;;;;;;;11.70;99.90;;;;;;5054381;28;19916;-70
2023/03/20 00:58:28;;;;;;;;;;;11.60;99.90;;;;;;5053955;28;19909;-70
2023/03/20 01:00:54;;;;;;;;;;;11.70;99.90;;;;;;5053478;28;19920;-70
2023/03/20 01:03:21;;;;;;;;;;;11.60;99.90;;;;;;5053678;28;19908;-70
2023/03/20 01:05:48;;;;;;;;;;;11.70;99.90;;;;;;5052826;28;19909;-70
2023/03/20 01:08:15;;;;;;;;;;;11.60;99.90;;;;;;5052554;28;20313;-70
2023/03/20 01:10:41;;;;;;;;;;;11.60;99.90;;;;;;5053486;28;19912;-71
2023/03/20 01:13:24;;;;;;;;;;;11.60;99.90;;;;;;5054182;28;20008;-70
2023/03/20 01:15:51;;;;;;;;;;;11.70;99.90;;;;;;5052836;28;19913;-70
2023/03/20 01:18:17;;;;;;;;;;;11.70;99.90;;;;;;5052877;28;19954;-70
2023/03/20 01:20:43;;;;;;;;;;;11.60;99.90;;;;;;5052594;28;20002;-70
2023/03/20 01:23:09;;;;;;;;;;;11.60;99.90;;;;;;5052697;28;19959;-70
2023/03/20 01:25:35;;;;;;;;;;;11.70;99.90;;;;;;5051841;28;20130;-70
2023/03/20 01:28:00;;;;;;;;;;;11.70;99.90;;;;;;5052786;28;19912;-70
2023/03/20 01:30:27;;;;;;;;;;;11.60;99.90;;;;;;5052749;28;19999;-70
2023/03/20 01:32:53;;;;;;;;;;;11.60;99.90;;;;;;5052791;28;19908;-70
2023/03/20 01:35:20;;;;;;;;;;;11.70;99.90;;;;;;5053168;28;20440;-70
2023/03/20 01:37:47;;;;;;;;;;;11.60;99.90;;;;;;5053362;28;19913;-70
2023/03/20 01:40:16;;;;;;;;;;;11.60;99.90;;;;;;5053057;28;19999;-70
2023/03/20 01:42:42;;;;;;;;;;;11.70;99.90;;;;;;5052177;28;19928;-70
2023/03/20 01:45:19;;;;;;;;;;;11.70;99.90;;;;;;5053655;28;19913;-70
2023/03/20 01:47:46;;;;;;;;;;;11.80;99.90;;;;;;5052983;28;19996;-70
2023/03/20 01:50:25;;;;;;;;;;;11.70;99.90;;;;;;5052850;28;19952;-70
2023/03/20 01:52:52;;;;;;;;;;;11.60;99.90;;;;;;5053103;28;20443;-69
2023/03/20 01:55:19;;;;;;;;;;;11.60;99.90;;;;;;5052883;28;19940;-70
2023/03/20 01:57:45;;;;;;;;;;;11.70;99.90;;;;;;5053270;28;19916;-70
2023/03/20 02:00:14;;;;;;;;;;;11.70;99.90;;;;;;5052672;28;19927;-70
2023/03/20 02:02:40;;;;;;;;;;;11.70;99.90;;;;;;5052266;28;20279;-70
2023/03/20 02:05:07;;;;;;;;;;;11.70;99.90;;;;;;5051786;28;19909;-70
2023/03/20 02:07:33;;;;;;;;;;;11.70;99.90;;;;;;5051797;28;19909;-70
2023/03/20 02:10:00;;;;;;;;;;;11.70;99.90;;;;;;5052743;28;19979;-70
2023/03/20 02:12:26;;;;;;;;;;;11.80;99.90;;;;;;5051998;28;19909;-70
2023/03/20 02:14:52;;;;;;;;;;;11.80;99.90;;;;;;5052697;28;19940;-72
2023/03/20 02:17:17;;;;;;;;;;;11.80;99.90;;;;;;5053167;28;20367;-70
2023/03/20 02:20:01;;;;;;;;;;;11.90;99.90;;;;;;5052888;28;20355;-70
2023/03/20 02:22:50;;;;;;;;;;;11.90;99.90;;;;;;5052644;28;19919;-70
2023/03/20 02:25:19;;;;;;;;;;;11.90;99.90;;;;;;5052992;28;19912;-70
2023/03/20 02:27:50;;;;;;;;;;;11.90;99.90;;;;;;5053357;28;20045;-70
2023/03/20 02:30:16;;;;;;;;;;;11.90;99.90;;;;;;5053234;28;19920;-71
2023/03/20 02:33:01;;;;;;;;;;;11.90;99.90;;;;;;5052863;28;20329;-71
2023/03/20 02:35:41;;;;;;;;;;;12.00;99.90;;;;;;5052607;28;19913;-70
2023/03/20 02:38:10;;;;;;;;;;;11.90;99.90;;;;;;5052554;28;19999;-70
2023/03/20 02:40:39;;;;;;;;;;;12.00;99.90;;;;;;5051305;28;19908;-70
2023/03/20 02:43:17;;;;;;;;;;;11.90;99.90;;;;;;5051444;28;19908;-71
2023/03/20 02:45:48;;;;;;;;;;;11.80;99.90;;;;;;5051734;28;19909;-70
2023/03/20 02:48:23;;;;;;;;;;;11.80;99.90;;;;;;5051918;28;19916;-71
2023/03/20 02:50:54;;;;;;;;;;;11.70;99.90;;;;;;5051242;28;20423;-70
2023/03/20 02:53:40;;;;;;;;;;;12.00;99.90;;;;;;5051954;28;19985;-70
2023/03/20 02:56:27;;;;;;;;;;;12.00;99.90;;;;;;5052257;28;19916;-70
2023/03/20 02:58:56;;;;;;;;;;;12.00;99.90;;;;;;5056615;28;19938;-70
2023/03/20 03:01:42;;;;;;;;;;;11.90;99.90;;;;;;5056589;28;20294;-70
2023/03/20 03:04:10;;;;;;;;;;;11.90;99.90;;;;;;5051694;28;19962;-70
2023/03/20 03:06:37;;;;;;;;;;;12.00;99.90;;;;;;5052533;28;19908;-70
2023/03/20 03:09:28;;;;;;;;;;;12.00;99.90;;;;;;5052625;28;19909;-71
2023/03/20 03:11:56;;;;;;;;;;;12.00;99.90;;;;;;5051748;28;19966;-70
2023/03/20 03:14:27;;;;;;;;;;;11.90;99.90;;;;;;5052646;28;19917;-70
2023/03/20 03:16:54;;;;;;;;;;;11.80;99.90;;;;;;5052631;28;19913;-71
2023/03/20 03:19:22;;;;;;;;;;;11.80;99.90;;;;;;5052545;28;19909;-70
2023/03/20 03:21:47;;;;;;;;;;;11.80;99.90;;;;;;5051827;28;19909;-70
2023/03/20 03:24:26;;;;;;;;;;;11.70;99.90;;;;;;5051559;28;20062;-70
2023/03/20 03:26:52;;;;;;;;;;;11.80;99.90;;;;;;5055758;28;20363;-70
2023/03/20 03:29:18;;;;;;;;;;;11.70;99.90;;;;;;5055905;28;19913;-71
2023/03/20 03:31:44;;;;;;;;;;;11.60;99.90;;;;;;5055365;28;19924;-70
2023/03/20 03:34:12;;;;;;;;;;;11.50;99.90;;;;;;5055865;28;20035;-70
2023/03/20 03:36:41;;;;;;;;;;;11.50;99.90;;;;;;5055140;28;19908;-70
2023/03/20 03:39:10;;;;;;;;;;;11.40;99.90;;;;;;5056136;28;19908;-71
2023/03/20 03:41:48;;;;;;;;;;;11.50;99.90;;;;;;5054475;28;20250;-70
2023/03/20 03:44:30;;;;;;;;;;;11.50;99.90;;;;;;5055584;28;19962;-71
2023/03/20 03:47:02;;;;;;;;;;;11.50;99.90;;;;;;5055468;28;19999;-71
2023/03/20 03:49:38;;;;;;;;;;;11.50;99.90;;;;;;5055617;28;20309;-70
2023/03/20 03:52:07;;;;;;;;;;;11.40;99.90;;;;;;5055945;28;19909;-71
2023/03/20 03:54:33;;;;;;;;;;;11.40;99.90;;;;;;5055586;28;19912;-74
2023/03/20 03:57:00;;;;;;;;;;;11.40;99.90;;;;;;5054157;28;19909;-75
2023/03/20 03:59:36;;;;;;;;;;;11.40;99.90;;;;;;5054328;28;19916;-71
2023/03/20 04:02:04;;;;;;;;;;;11.30;99.90;;;;;;5055715;28;19915;-70
2023/03/20 04:04:31;;;;;;;;;;;11.30;99.90;;;;;;5055311;28;19963;-70
2023/03/20 04:06:57;;;;;;;;;;;11.30;99.90;;;;;;5054233;28;19995;-70
2023/03/20 04:09:23;;;;;;;;;;;11.30;99.90;;;;;;5055480;28;20364;-70
2023/03/20 04:11:50;;;;;;;;;;;11.30;99.90;;;;;;5055640;28;20290;-70
2023/03/20 04:14:16;;;;;;;;;;;11.30;99.90;;;;;;5054749;28;19919;-70
2023/03/20 04:16:41;;;;;;;;;;;11.30;99.90;;;;;;5053898;28;19913;-70
2023/03/20 04:19:07;;;;;;;;;;;11.20;99.90;;;;;;5053817;28;19909;-70
2023/03/20 04:21:33;;;;;;;;;;;11.20;99.90;;;;;;5053421;28;19908;-70
2023/03/20 04:23:58;;;;;;;;;;;11.20;99.90;;;;;;5053125;28;20251;-71
2023/03/20 04:26:24;;;;;;;;;;;11.10;99.90;;;;;;5053430;28;20298;-70
2023/03/20 04:28:52;;;;;;;;;;;11.10;99.90;;;;;;5052526;28;20130;-70
2023/03/20 04:31:18;;;;;;;;;;;11.10;99.90;;;;;;5053189;28;19962;-70
2023/03/20 04:33:43;;;;;;;;;;;11.10;99.90;;;;;;5052896;28;20325;-70
2023/03/20 04:36:09;;;;;;;;;;;11.10;99.90;;;;;;5052646;28;20311;-70
2023/03/20 04:38:35;;;;;;;;;;;11.10;99.90;;;;;;5053133;28;20398;-70
2023/03/20 04:41:01;;;;;;;;;;;11.00;99.90;;;;;;5052778;28;19955;-70
2023/03/20 04:43:27;;;;;;;;;;;11.00;99.90;;;;;;5053301;28;19913;-70
2023/03/20 04:45:53;;;;;;;;;;;11.00;99.90;;;;;;5053072;28;20080;-70
2023/03/20 04:48:18;;;;;;;;;;;11.00;99.90;;;;;;5052780;28;19913;-70
2023/03/20 04:50:47;;;;;;;;;;;10.90;99.90;;;;;;5052556;28;19915;-70
2023/03/20 04:53:13;;;;;;;;;;;10.90;99.90;;;;;;5052565;28;20366;-70
2023/03/20 04:55:40;;;;;;;;;;;10.90;99.90;;;;;;5052941;28;19931;-70
2023/03/20 04:58:05;;;;;;;;;;;11.00;99.90;;;;;;5052777;28;19992;-70
2023/03/20 05:00:32;;;;;;;;;;;10.90;99.90;;;;;;5052315;28;20344;-70
2023/03/20 05:02:57;;;;;;;;;;;11.00;99.90;;;;;;5050817;28;20377;-70
2023/03/20 05:05:23;;;;;;;;;;;11.00;99.90;;;;;;5052600;28;19912;-70
2023/03/20 05:07:50;;;;;;;;;;;11.00;99.90;;;;;;5052480;28;20015;-70
2023/03/20 05:10:18;;;;;;;;;;;11.00;99.90;;;;;;5052408;28;20390;-69
2023/03/20 05:12:44;;;;;;;;;;;11.00;99.90;;;;;;5051527;28;20008;-69
2023/03/20 05:15:10;;;;;;;;;;;10.90;99.90;;;;;;5053223;28;19999;-69
2023/03/20 05:17:36;;;;;;;;;;;11.00;99.90;;;;;;5053522;28;19908;-70
2023/03/20 05:20:01;;;;;;;;;;;11.00;99.90;;;;;;5052776;28;19999;-70
2023/03/20 05:22:27;;;;;;;;;;;11.10;99.90;;;;;;5052502;28;20363;-70
2023/03/20 05:24:53;;;;;;;;;;;11.00;99.90;;;;;;5052454;28;19919;-70
2023/03/20 05:27:19;;;;;;;;;;;11.10;99.90;;;;;;5051921;28;20320;-70
2023/03/20 05:29:44;;;;;;;;;;;11.10;99.90;;;;;;5051918;28;19999;-70
2023/03/20 05:32:11;;;;;;;;;;;11.10;99.90;;;;;;5051627;28;19909;-70
2023/03/20 05:34:37;;;;;;;;;;;11.10;99.90;;;;;;5051655;28;19912;-70
2023/03/20 05:37:03;;;;;;;;;;;11.10;99.90;;;;;;5051961;28;19913;-70
2023/03/20 05:39:29;;;;;;;;;;;11.10;99.90;;;;;;5051802;28;20461;-70
2023/03/20 05:41:54;;;;;;;;;;;11.10;99.90;;;;;;5051193;28;19931;-70
2023/03/20 05:44:20;;;;;;;;;;;11.10;99.90;;;;;;5051632;28;19909;-70
2023/03/20 05:46:46;;;;;;;;;;;11.10;99.90;;;;;;5051426;28;19915;-70
2023/03/20 05:49:11;;;;;;;;;;;11.20;99.90;;;;;;5050867;28;20354;-70
2023/03/20 05:51:37;;;;;;;;;;;11.20;99.90;;;;;;5051442;28;19958;-70
2023/03/20 05:54:03;;;;;;;;;;;11.10;99.90;;;;;;5051451;28;19919;-70
2023/03/20 05:56:29;;;;;;;;;;;11.10;99.90;;;;;;5051652;28;19915;-70
2023/03/20 05:58:55;;;;;;;;;;;11.10;99.90;;;;;;5051422;28;19913;-70
2023/03/20 06:01:21;;;;;;;;;;;11.00;99.90;;;;;;5051010;28;19967;-70
2023/03/20 06:03:47;;;;;;;;;;;11.00;99.90;;;;;;5051323;28;19909;-70
2023/03/20 06:06:13;;;;;;;;;;;11.00;99.90;;;;;;5051563;28;19999;-70
2023/03/20 06:08:39;;;;;;;;;;;11.00;99.90;;;;;;5051432;28;19951;-70
2023/03/20 06:11:05;;;;;;;;;;;11.00;99.90;;;;;;5051589;28;19909;-70
2023/03/20 06:13:31;;;;;;;;;;;11.10;99.90;;;;;;5051399;28;19923;-70
2023/03/20 06:15:56;;;;;;;;;;;11.10;99.90;;;;;;5051548;28;20479;-70
2023/03/20 06:18:22;;;;;;;;;;;11.00;99.90;;;;;;5051612;28;19916;-69
2023/03/20 06:20:51;;;;;;;;;;;11.10;99.90;;;;;;5051818;28;20287;-71
2023/03/20 06:23:17;;;;;;;;;;;11.10;99.90;;;;;;5051319;28;19939;-70
2023/03/20 06:25:42;;;;;;;;;;;11.10;99.90;;;;;;5051798;28;20275;-71
2023/03/20 06:28:08;;;;;;;;;;;11.00;99.90;;;;;;5051627;28;19909;-70
2023/03/20 06:30:34;;;;;;;;;;;11.10;99.90;;;;;;5051983;28;19909;-71
2023/03/20 06:33:00;;;;;;;;;;;11.00;99.90;;;;;;5052122;28;19908;-70
2023/03/20 06:35:29;;;;;;;;;;;11.00;99.90;;;;;;5051943;28;19939;-72
2023/03/20 06:37:56;;;;;;;;;;;11.00;99.90;;;;;;5051888;28;19987;-70
2023/03/20 06:40:22;;;;;;;;;;;11.00;99.90;;;;;;5051618;28;19913;-70
2023/03/20 06:42:47;;;;;;;;;;;11.00;99.90;;;;;;5052012;28;19909;-70
2023/03/20 06:45:13;;;;;;;;;;;11.00;99.90;;;;;;5051259;28;19968;-70
2023/03/20 06:47:39;;;;;;;;;;;11.00;99.90;;;;;;5051524;28;19928;-70
2023/03/20 06:50:05;;;;;;;;;;;11.00;99.90;;;;;;5051276;28;19909;-70
2023/03/20 06:52:31;;;;;;;;;;;11.00;99.90;;;;;;5051201;28;19936;-70
2023/03/20 06:54:57;;;;;;;;;;;11.00;99.90;;;;;;5051369;28;19913;-70
2023/03/20 06:57:23;;;;;;;;;;;11.00;99.90;;;;;;5051877;28;19909;-70
2023/03/20 06:59:49;;;;;;;;;;;11.00;99.90;;;;;;5054144;28;19909;-70
2023/03/20 07:02:15;;;;;;;;;;;11.10;99.90;;;;;;5055214;28;20236;-70
2023/03/20 07:04:41;;;;;;;;;;;11.10;99.90;;;;;;5055655;28;19909;-70
2023/03/20 07:07:07;;;;;;;;;;;11.10;99.90;;;;;;5055519;28;19909;-70
2023/03/20 07:09:33;;;;;;;;;;;11.20;99.90;;;;;;5055435;28;20370;-70
2023/03/20 07:11:58;;;;;;;;;;;11.20;99.90;;;;;;5056684;28;20355;-70
2023/03/20 07:14:24;;;;;;;;;;;11.20;99.90;;;;;;5058101;28;19921;-70
2023/03/20 07:16:50;;;;;;;;;;;11.20;99.90;;;;;;5056875;28;19920;-70
2023/03/20 07:19:16;;;;;;;;;;;11.20;99.90;;;;;;5053539;28;19913;-70
2023/03/20 07:21:42;;;;;;;;;;;11.20;99.90;;;;;;5054596;28;20182;-70
2023/03/20 07:24:08;;;;;;;;;;;11.20;99.90;;;;;;5054546;28;19917;-70
2023/03/20 07:26:33;;;;;;;;;;;11.10;99.90;;;;;;5055165;28;19909;-70
2023/03/20 07:28:59;;;;;;;;;;;11.10;99.90;;;;;;5054856;28;19991;-70
2023/03/20 07:31:27;;;;;;;;;;;11.10;99.90;;;;;;5054350;28;20020;-70
2023/03/20 07:33:53;;;;;;;;;;;11.10;99.90;;;;;;5054695;28;19919;-70
2023/03/20 07:36:19;;;;;;;;;;;11.10;99.90;;;;;;5053309;28;20325;-76
2023/03/20 07:38:44;;;;;;;;;;;11.10;99.90;;;;;;5055308;28;19968;-70
2023/03/20 07:41:10;;;;;;;;;;;11.10;99.90;;;;;;5055089;28;19944;-70
2023/03/20 07:43:36;;;;;;;;;;;11.10;99.90;;;;;;5055474;28;20357;-71
2023/03/20 07:46:05;;;;;;;;;;;11.10;99.90;;;;;;5056719;28;19987;-71
2023/03/20 07:48:31;;;;;;;;;;;11.10;99.90;;;;;;5055851;28;20012;-71
2023/03/20 07:50:56;;;;;;;;;;;11.10;99.90;;;;;;5055901;28;19915;-70
2023/03/20 07:53:22;;;;;;;;;;;11.10;99.90;;;;;;5055510;28;19944;-71
2023/03/20 07:55:47;;;;;;;;;;;11.10;99.90;;;;;;5055904;28;19909;-71
2023/03/20 07:58:13;;;;;;;;;;;11.10;99.90;;;;;;5053935;28;19955;-72
2023/03/20 08:00:39;;;;;;;;;;;11.20;99.90;;;;;;5053402;28;19936;-71
2023/03/20 08:03:05;;;;;;;;;;;11.20;99.90;;;;;;5053484;28;19909;-71
2023/03/20 08:05:30;;;;;;;;;;;11.20;99.90;;;;;;5052039;28;19955;-71
2023/03/20 08:07:56;;;;;;;;;;;11.30;99.90;;;;;;5053566;28;19909;-71
2023/03/20 08:10:22;;;;;;;;;;;11.30;99.90;;;;;;5052231;28;20381;-71
2023/03/20 08:12:47;;;;;;;;;;;11.40;99.90;;;;;;5053360;28;19979;-71
2023/03/20 08:15:13;;;;;;;;;;;11.40;99.90;;;;;;5053257;28;19920;-71
2023/03/20 08:17:43;;;;;;;;;;;11.50;99.90;;;;;;5053373;28;19932;-70
2023/03/20 08:20:09;;;;;;;;;;;11.40;99.90;;;;;;5052967;28;19915;-71
2023/03/20 08:22:35;;;;;;;;;;;11.40;99.90;;;;;;5053039;28;19913;-71
2023/03/20 08:25:01;;;;;;;;;;;11.50;99.90;;;;;;5053564;28;19932;-71
2023/03/20 08:27:27;;;;;;;;;;;11.50;99.90;;;;;;5053352;28;19987;-71
2023/03/20 08:29:52;;;;;;;;;;;11.60;99.90;;;;;;5052840;28;19948;-71
2023/03/20 08:32:18;;;;;;;;;;;11.60;99.90;;;;;;5053707;28;20004;-71
2023/03/20 08:34:44;;;;;;;;;;;11.50;99.90;;;;;;5054882;28;19921;-71
2023/03/20 08:37:11;;;;;;;;;;;11.50;99.90;;;;;;5055004;28;19908;-71
2023/03/20 08:39:38;;;;;;;;;;;11.50;99.90;;;;;;5053394;28;19909;-71
2023/03/20 08:42:04;;;;;;;;;;;11.60;99.90;;;;;;5054559;28;19909;-71
2023/03/20 08:44:30;;;;;;;;;;;11.60;99.90;;;;;;5054458;28;19909;-70
2023/03/20 08:46:55;;;;;;;;;;;11.60;99.90;;;;;;5055126;28;19924;-76
2023/03/20 08:49:21;;;;;;;;;;;11.60;99.90;;;;;;5054607;28;19919;-71
2023/03/20 08:51:47;;;;;;;;;;;11.70;99.90;;;;;;5054073;28;19975;-71
2023/03/20 08:54:17;;;;;;;;;;;11.60;99.90;;;;;;5054266;28;19917;-71
2023/03/20 08:56:43;;;;;;;;;;;11.70;99.90;;;;;;5054733;28;20311;-71
2023/03/20 08:59:09;;;;;;;;;;;11.70;99.90;;;;;;5053858;28;20286;-70
2023/03/20 09:01:35;;;;;;;;;;;11.70;99.90;;;;;;5053995;28;19909;-70
2023/03/20 09:04:01;;;;;;;;;;;11.90;99.90;;;;;;5053901;28;19916;-71
2023/03/20 09:06:26;;;;;;;;;;;12.00;99.90;;;;;;5054336;28;19913;-71
2023/03/20 09:08:53;;;;;;;;;;;12.00;99.90;;;;;;5054145;28;19963;-70
2023/03/20 09:11:19;;;;;;;;;;;12.00;99.90;;;;;;5054177;28;19931;-70
2023/03/20 09:13:44;;;;;;;;;;;12.00;99.90;;;;;;5053707;28;19912;-71
2023/03/20 09:16:10;;;;;;;;;;;12.00;99.90;;;;;;5054277;28;19908;-70
2023/03/20 09:18:35;;;;;;;;;;;11.80;99.90;;;;;;5054271;28;19908;-71
2023/03/20 09:21:01;;;;;;;;;;;11.80;99.90;;;;;;5053550;28;19913;-70
2023/03/20 09:23:27;;;;;;;;;;;11.80;99.90;;;;;;5053616;28;19917;-71
2023/03/20 09:25:52;;;;;;;;;;;11.80;99.90;;;;;;5054197;28;20011;-70
2023/03/20 09:28:18;;;;;;;;;;;11.80;99.90;;;;;;5053339;28;20378;-70
2023/03/20 09:30:44;;;;;;;;;;;11.80;99.90;;;;;;5053770;28;19909;-71
2023/03/20 09:33:10;;;;;;;;;;;11.90;99.90;;;;;;5054299;28;19909;-71
2023/03/20 09:35:36;;;;;;;;;;;11.90;99.90;;;;;;5053248;28;20306;-70
2023/03/20 09:38:02;;;;;;;;;;;12.10;99.90;;;;;;5052250;28;19913;-71
2023/03/20 09:40:29;;;;;;;;;;;12.30;99.90;;;;;;5053073;28;19916;-72
2023/03/20 09:42:57;;;;;;;;;;;12.40;99.90;;;;;;5053220;28;19913;-72
2023/03/20 09:45:32;;;;;;;;;;;12.50;99.90;;;;;;5052613;28;19955;-72
2023/03/20 09:48:03;;;;;;;;;;;12.70;99.90;;;;;;5051952;28;19909;-70
2023/03/20 09:50:42;;;;;;;;;;;12.90;99.90;;;;;;5053600;28;19913;-70
2023/03/20 09:53:10;;;;;;;;;;;13.00;99.90;;;;;;5053650;28;19952;-70
2023/03/20 09:55:38;;;;;;;;;;;12.90;99.90;;;;;;5053477;28;19917;-71
2023/03/20 09:58:08;;;;;;;;;;;12.80;99.90;;;;;;5053477;28;20377;-71
2023/03/20 10:00:35;;;;;;;;;;;12.90;99.90;;;;;;5053474;28;20343;-71
2023/03/20 10:03:03;;;;;;;;;;;12.80;99.90;;;;;;5051580;28;19917;-71
2023/03/20 10:05:30;;;;;;;;;;;12.80;99.90;;;;;;5053292;28;19909;-72
2023/03/20 10:07:58;;;;;;;;;;;12.80;99.90;;;;;;5053415;28;19909;-75
2023/03/20 10:10:30;;;;;;;;;;;12.90;99.90;;;;;;5053073;28;20394;-71
2023/03/20 10:13:35;;;;;;;;;;;12.90;99.90;;;;;;5053339;28;20279;-72
2023/03/20 10:16:09;;;;;;;;;;;13.00;99.90;;;;;;5050433;28;19995;-71
2023/03/20 10:18:37;;;;;;;;;;;13.10;99.90;;;;;;5050758;28;19966;-71
2023/03/20 10:21:12;;;;;;;;;;;13.10;99.90;;;;;;5051291;28;19908;-71
2023/03/20 10:23:47;;;;;;;;;;;13.10;99.90;;;;;;5053491;28;19920;-71
2023/03/20 10:26:14;;;;;;;;;;;13.20;99.90;;;;;;5053211;28;19909;-71
2023/03/20 10:28:40;;;;;;;;;;;13.20;99.90;;;;;;5052466;28;19995;-71
2023/03/20 10:31:24;;;;;;;;;;;13.20;99.90;;;;;;5052635;28;19955;-74
2023/03/20 10:34:02;;;;;;;;;;;13.40;99.90;;;;;;5052447;28;20378;-71
2023/03/20 10:36:46;;;;;;;;;;;13.60;99.90;;;;;;5053245;28;19952;-71
2023/03/20 10:39:12;;;;;;;;;;;13.70;99.90;;;;;;5053682;28;19913;-71
2023/03/20 10:41:38;;;;;;;;;;;13.70;99.90;;;;;;5052622;28;19931;-71
2023/03/20 10:44:09;;;;;;;;;;;13.60;99.90;;;;;;5053089;28;19913;-71
2023/03/20 10:46:40;;;;;;;;;;;13.70;99.90;;;;;;5052686;28;19909;-71
2023/03/20 10:49:15;;;;;;;;;;;13.70;99.90;;;;;;5051364;28;19915;-71
2023/03/20 10:51:44;;;;;;;;;;;13.70;99.90;;;;;;5051347;28;19908;-71
2023/03/20 10:54:27;;;;;;;;;;;13.80;99.90;;;;;;5052856;28;19935;-71
2023/03/20 10:56:55;;;;;;;;;;;13.90;99.90;;;;;;5052952;28;19973;-71
2023/03/20 10:59:20;;;;;;;;;;;13.90;99.90;;;;;;5052850;28;19909;-71
2023/03/20 11:01:46;;;;;;;;;;;13.90;99.90;;;;;;5052587;28;19916;-71
2023/03/20 11:04:12;;;;;;;;;;;14.00;99.90;;;;;;5051720;28;19962;-71
2023/03/20 11:06:49;;;;;;;;;;;13.90;99.90;;;;;;5052793;28;19909;-71
2023/03/20 11:09:18;;;;;;;;;;;14.00;99.90;;;;;;5052506;28;20003;-71
2023/03/20 11:11:44;;;;;;;;;;;14.00;99.90;;;;;;5052356;28;19913;-70
2023/03/20 11:14:23;;;;;;;;;;;14.00;99.90;;;;;;5052110;28;20000;-71
2023/03/20 11:16:50;;;;;;;;;;;14.00;99.90;;;;;;5053339;28;20605;-75
2023/03/20 11:19:17;;;;;;;;;;;14.10;99.90;;;;;;5053275;28;20028;-71
2023/03/20 11:21:44;;;;;;;;;;;14.00;99.90;;;;;;5052923;28;19999;-71
2023/03/20 11:24:28;;;;;;;;;;;14.10;99.90;;;;;;5052689;28;20341;-73
2023/03/20 11:27:03;;;;;;;;;;;14.10;99.90;;;;;;5052447;28;19909;-71
2023/03/20 11:29:29;;;;;;;;;;;14.20;99.90;;;;;;5052483;28;19940;-71
2023/03/20 11:32:02;;;;;;;;;;;14.20;99.90;;;;;;5050500;28;20368;-71
2023/03/20 11:34:29;;;;;;;;;;;14.30;99.90;;;;;;5052391;28;20011;-71
2023/03/20 11:36:59;;;;;;;;;;;14.30;99.90;;;;;;5051107;28;19947;-71
2023/03/20 11:39:27;;;;;;;;;;;14.30;99.90;;;;;;5052117;28;19935;-71
2023/03/20 11:41:53;;;;;;;;;;;14.30;99.90;;;;;;5052040;28;19952;-71
2023/03/20 11:44:32;;;;;;;;;;;14.30;99.90;;;;;;5052196;28;19916;-71
2023/03/20 11:47:00;;;;;;;;;;;14.30;99.90;;;;;;5053464;28;19909;-71
2023/03/20 11:49:29;;;;;;;;;;;14.30;99.90;;;;;;5056035;28;19920;-71
2023/03/20 11:51:58;;;;;;;;;;;14.20;99.90;;;;;;5055689;28;20332;-71
2023/03/20 11:54:25;;;;;;;;;;;14.20;99.90;;;;;;5055845;28;19952;-71
2023/03/20 11:56:52;;;;;;;;;;;14.10;99.90;;;;;;5055871;28;19913;-72
2023/03/20 11:59:18;;;;;;;;;;;14.10;99.90;;;;;;5056125;28;19920;-71
2023/03/20 12:01:53;;;;;;;;;;;14.10;99.90;;;;;;5055690;28;19912;-71
2023/03/20 12:04:26;;;;;;;;;;;14.10;99.90;;;;;;5055193;28;19931;-71
2023/03/20 12:06:55;;;;;;;;;;;14.20;99.90;;;;;;5055276;28;19919;-71
2023/03/20 12:09:24;;;;;;;;;;;14.20;99.90;;;;;;5055529;28;20449;-71
2023/03/20 12:11:53;;;;;;;;;;;14.30;99.90;;;;;;5055576;28;19909;-75
2023/03/20 12:14:26;;;;;;;;;;;14.30;99.90;;;;;;5055324;28;20408;-71
2023/03/20 12:16:56;;;;;;;;;;;14.30;99.90;;;;;;5055382;28;19913;-71
2023/03/20 12:19:24;;;;;;;;;;;14.30;99.90;;;;;;5055876;28;19991;-71
2023/03/20 12:21:54;;;;;;;;;;;14.40;99.90;;;;;;5055323;28;19949;-71
2023/03/20 12:24:58;;;;;;;;;;;14.40;99.90;;;;;;5055209;28;19920;-70
2023/03/20 12:27:28;;;;;;;;;;;14.40;99.90;;;;;;5052490;28;19909;-70
2023/03/20 12:30:00;;;;;;;;;;;14.40;99.90;;;;;;5052581;28;20397;-71
2023/03/20 12:32:27;;;;;;;;;;;14.40;99.90;;;;;;5054234;28;19955;-71
2023/03/20 12:34:58;;;;;;;;;;;14.40;99.90;;;;;;5055024;28;20417;-71
2023/03/20 12:37:23;;;;;;;;;;;14.50;99.90;;;;;;5055182;28;19954;-71
2023/03/20 12:39:51;;;;;;;;;;;14.40;99.90;;;;;;5055335;28;20375;-71
2023/03/20 12:42:35;;;;;;;;;;;14.40;99.90;;;;;;5054195;28;20043;-71
2023/03/20 12:45:08;;;;;;;;;;;14.40;99.90;;;;;;5054980;28;19916;-71
2023/03/20 12:47:38;;;;;;;;;;;14.40;99.90;;;;;;5053823;28;20057;-70
2023/03/20 12:50:19;;;;;;;;;;;14.40;99.90;;;;;;5052966;28;19919;-70
2023/03/20 12:52:45;;;;;;;;;;;14.40;99.90;;;;;;5051393;28;19932;-71
2023/03/20 12:55:16;;;;;;;;;;;14.40;99.90;;;;;;5052823;28;19912;-70
2023/03/20 12:57:45;;;;;;;;;;;14.40;99.90;;;;;;5052420;28;19909;-71
2023/03/20 13:00:22;;;;;;;;;;;14.30;99.90;;;;;;5052570;28;19909;-70
2023/03/20 13:02:58;;;;;;;;;;;14.30;99.90;;;;;;5052601;28;19916;-71
2023/03/20 13:05:36;;;;;;;;;;;14.20;99.90;;;;;;5052535;28;20050;-70
2023/03/20 13:08:21;;;;;;;;;;;14.10;99.90;;;;;;5052630;28;19913;-71
2023/03/20 13:10:52;;;;;;;;;;;14.00;99.90;;;;;;5052228;28;19982;-71
2023/03/20 13:13:24;;;;;;;;;;;14.00;99.90;;;;;;5052975;28;19909;-71
2023/03/20 13:15:56;;;;;;;;;;;14.00;99.90;;;;;;5054352;28;19913;-71
2023/03/20 13:19:00;;;;;;;;;;;14.00;99.90;;;;;;5055114;28;19912;-71
2023/03/20 13:21:37;;;;;;;;;;;14.00;99.90;;;;;;5051636;28;19909;-71
2023/03/20 13:24:18;;;;;;;;;;;14.00;99.90;;;;;;5051414;28;20367;-71
2023/03/20 13:26:51;;;;;;;;;;;14.00;99.90;;;;;;5053174;28;19915;-71
2023/03/20 13:29:16;;;;;;;;;;;14.00;99.90;;;;;;5053596;28;19909;-71
2023/03/20 13:32:00;;;;;;;;;;;14.00;99.90;;;;;;5054328;28;20136;-71
2023/03/20 13:34:30;;;;;;;;;;;14.10;99.90;;;;;;5052574;28;19920;-71
2023/03/20 13:37:02;;;;;;;;;;;14.10;99.90;;;;;;5053501;28;20354;-71
2023/03/20 13:39:36;;;;;;;;;;;14.10;99.90;;;;;;5053787;28;19909;-71
2023/03/20 13:42:04;;;;;;;;;;;14.10;99.90;;;;;;5053613;28;19912;-70
2023/03/20 13:44:31;;;;;;;;;;;14.20;99.90;;;;;;5053348;28;19916;-70
2023/03/20 13:47:05;;;;;;;;;;;14.20;99.90;;;;;;5054031;28;19915;-71
2023/03/20 13:49:49;;;;;;;;;;;14.20;99.90;;;;;;5053846;28;19962;-72
2023/03/20 13:52:22;;;;;;;;;;;14.20;99.90;;;;;;5053348;28;20326;-73
2023/03/20 13:54:48;;;;;;;;;;;14.20;99.90;;;;;;5053451;28;19921;-71
2023/03/20 13:57:23;;;;;;;;;;;14.20;99.90;;;;;;5053317;28;20023;-73
2023/03/20 13:59:51;;;;;;;;;;;14.20;99.90;;;;;;5053155;28;19909;-71
2023/03/20 14:02:32;;;;;;;;;;;14.20;99.90;;;;;;5053357;28;19916;-71
2023/03/20 14:05:03;;;;;;;;;;;14.20;99.90;;;;;;5052973;28;19913;-70
2023/03/20 14:07:30;;;;;;;;;;;14.20;99.90;;;;;;5053105;28;19909;-70
2023/03/20 14:09:56;;;;;;;;;;;14.10;99.90;;;;;;5052838;28;19970;-74
2023/03/20 14:12:25;;;;;;;;;;;14.10;99.90;;;;;;5053176;28;19912;-72
2023/03/20 14:14:54;;;;;;;;;;;14.10;99.90;;;;;;5053303;28;19917;-71
2023/03/20 14:17:29;;;;;;;;;;;14.00;99.90;;;;;;5052924;28;19916;-70
2023/03/20 14:19:56;;;;;;;;;;;14.00;99.90;;;;;;5052983;28;19909;-71
2023/03/20 14:22:26;;;;;;;;;;;13.90;99.90;;;;;;5052870;28;19959;-71
2023/03/20 14:24:56;;;;;;;;;;;13.90;99.90;;;;;;5052931;28;19959;-71
2023/03/20 14:27:24;;;;;;;;;;;13.90;99.90;;;;;;5052982;28;20375;-70